Time,TemperatureF,DewpointF,PressureIn,WindDirection,WindDirectionDegrees,WindSpeedMPH,WindSpeedGustMPH,Humidity,HourlyPrecipIn,Conditions,Clouds,dailyrainin,SoftwareType,DateUTC
2013-01-10 00:00:00,17.0,17.0,-100.00,WNW,296,7.0,15.0,99,-99.99,,,-99.99,,2013-01-10 08:00:00,
2013-01-10 01:00:00,16.0,16.0,-100.00,WNW,303,8.0,16.0,98,-99.99,,,-99.99,,2013-01-10 09:00:00,
2013-01-10 02:00:00,16.0,16.0,-100.00,NW,304,9.0,15.0,98,-99.99,,,-99.99,,2013-01-10 10:00:00,
2013-01-10 03:00:00,16.0,16.0,-100.00,WNW,297,8.0,15.0,98,-99.99,,,-99.99,,2013-01-10 11:00:00,
2013-01-10 04:00:00,16.0,16.0,-100.00,NW,307,10.0,16.0,98,-99.99,,,-99.99,,2013-01-10 12:00:00,
2013-01-10 05:00:00,15.0,15.0,-100.00,WNW,299,8.0,17.0,98,-99.99,,,-99.99,,2013-01-10 13:00:00,
2013-01-10 06:00:00,15.0,14.0,-100.00,NW,306,10.0,20.0,97,-99.99,,,-99.99,,2013-01-10 14:00:00,
2013-01-10 07:00:00,15.0,14.0,-100.00,NW,314,9.0,20.0,97,-99.99,,,-99.99,,2013-01-10 15:00:00,
2013-01-10 08:00:00,16.0,16.0,-100.00,NW,309,6.0,12.0,98,-99.99,,,-99.99,,2013-01-10 16:00:00,
2013-01-10 09:00:00,16.0,16.0,-100.00,NW,308,7.0,13.0,98,-99.99,,,-99.99,,2013-01-10 17:00:00,
2013-01-10 09:53:00,16.0,16.0,-100.00,NW,308,7.0,13.0,98,-99.99,,,-99.99,,2013-01-10 17:53:00,
2013-01-10 10:00:00,18.0,18.0,-100.00,NW,325,9.0,13.0,99,-99.99,,,-99.99,,2013-01-10 18:00:00,
2013-01-10 11:00:00,19.0,19.0,-100.00,NNW,327,9.0,15.0,100,-99.99,,,-99.99,,2013-01-10 19:00:00,
2013-01-10 12:00:00,19.0,19.0,-100.00,NW,326,9.0,16.0,99,-99.99,,,-99.99,,2013-01-10 20:00:00,
2013-01-10 14:00:00,19.0,19.0,-100.00,NNW,332,10.0,15.0,99,-99.99,,,-99.99,,2013-01-10 22:00:00,
2013-01-10 15:00:00,16.0,16.0,-100.00,NNW,331,12.0,17.0,98,-99.99,,,-99.99,,2013-01-10 23:00:00,
2013-01-10 15:53:00,16.0,16.0,-100.00,NNW,331,12.0,17.0,98,-99.99,,,-99.99,,2013-01-10 23:53:00,
2013-01-10 17:00:00,15.0,14.0,-100.00,NNW,334,13.0,20.0,97,-99.99,,,-99.99,,2013-01-11 01:00:00,
2013-01-10 18:00:00,15.0,15.0,-100.00,NNW,330,13.0,20.0,98,-99.99,,,-99.99,,2013-01-11 02:00:00,
2013-01-10 20:00:00,15.0,14.0,-100.00,NNW,332,10.0,17.0,97,-99.99,,,-99.99,,2013-01-11 04:00:00,
2013-01-10 21:00:00,15.0,14.0,-100.00,NW,309,8.0,20.0,97,-99.99,,,-99.99,,2013-01-11 05:00:00,
2013-01-10 22:00:00,14.0,13.0,-100.00,NW,316,12.0,22.0,96,-99.99,,,-99.99,,2013-01-11 06:00:00,
2013-01-10 23:00:00,15.0,14.0,-100.00,NW,318,10.0,20.0,97,-99.99,,,-99.99,,2013-01-11 07:00:00,